createdAt,value
2018-04-07T00:00:02.292Z,6.2
2018-04-07T00:15:02.684Z,6.1
2018-04-07T00:30:03.068Z,5.9
2018-04-07T00:45:02.406Z,5.8
2018-04-07T01:00:02.737Z,5.8
2018-04-07T01:15:03.005Z,5.5
2018-04-07T01:30:02.366Z,5.4
2018-04-07T01:45:02.640Z,5.2
2018-04-07T02:00:02.962Z,5.1
2018-04-07T02:15:02.336Z,5
2018-04-07T02:30:02.738Z,5
2018-04-07T02:45:02.984Z,5
2018-04-07T03:00:02.389Z,4.9
2018-04-07T03:15:02.681Z,4.8
2018-04-07T03:30:03.009Z,4.6
2018-04-07T03:45:02.346Z,4.2
2018-04-07T04:00:02.658Z,4
2018-04-07T04:15:02.921Z,3.8
2018-04-07T04:30:02.227Z,3.3
2018-04-07T04:45:02.469Z,3.5
2018-04-07T05:00:02.727Z,3.3
2018-04-07T05:15:02.986Z,3.4
2018-04-07T05:30:02.444Z,4.1
2018-04-07T05:45:02.819Z,4.4
2018-04-07T06:00:03.110Z,4.9
2018-04-07T06:15:02.439Z,5.4
2018-04-07T06:30:02.873Z,5.8
2018-04-07T06:45:03.131Z,6.5
2018-04-07T07:00:02.459Z,7.1
2018-04-07T07:15:02.769Z,7.9
2018-04-07T07:30:03.098Z,8.7
2018-04-07T07:45:02.390Z,9.4
2018-04-07T08:00:02.666Z,10.2
2018-04-07T08:15:02.908Z,11.2
2018-04-07T08:30:02.380Z,11.7
2018-04-07T08:45:02.751Z,12.3
2018-04-07T09:00:03.040Z,13.8
2018-04-07T09:15:02.413Z,14.4
2018-04-07T09:30:02.807Z,15
2018-04-07T09:45:03.076Z,15.8
2018-04-07T10:00:02.479Z,16.1
2018-04-07T10:15:02.780Z,15.8
2018-04-07T10:30:03.259Z,17.4
2018-04-07T10:45:02.569Z,17.2
2018-04-07T11:00:02.816Z,18.1
2018-04-07T11:15:03.151Z,18.5
2018-04-07T11:30:02.544Z,19.6
2018-04-07T11:45:02.795Z,19.2
2018-04-07T12:00:03.129Z,20.1
2018-04-07T12:15:02.378Z,20.2
2018-04-07T12:30:02.715Z,20.7
2018-04-07T12:45:02.934Z,20.8
2018-04-07T13:00:03.245Z,20.5
2018-04-07T13:15:02.536Z,20.8
2018-04-07T13:30:02.830Z,20.6
2018-04-07T13:45:03.111Z,20.8
2018-04-07T14:00:02.395Z,20.8
2018-04-07T14:15:02.677Z,21.1
2018-04-07T14:30:02.984Z,20.9
2018-04-07T14:45:02.339Z,20.6
2018-04-07T15:00:02.665Z,20.5
2018-04-07T15:15:02.904Z,20.1
2018-04-07T15:30:02.272Z,19.9
2018-04-07T15:45:02.512Z,19.8
2018-04-07T16:00:02.852Z,19.4
2018-04-07T16:15:03.117Z,19.1
2018-04-07T16:30:02.435Z,18.7
2018-04-07T16:45:02.668Z,18.4
2018-04-07T17:00:02.912Z,17.9
2018-04-07T17:15:03.176Z,17.4
2018-04-07T17:30:02.540Z,16.8
2018-04-07T17:45:02.791Z,16.1
2018-04-07T18:00:02.996Z,15.9
2018-04-07T18:15:02.336Z,15.4
2018-04-07T18:30:02.681Z,15.3
2018-04-07T18:45:02.957Z,14.9
2018-04-07T19:00:02.292Z,14.5
2018-04-07T19:15:02.552Z,14.3
2018-04-07T19:30:02.903Z,13.9
2018-04-07T19:45:03.129Z,13.6
2018-04-07T20:00:02.384Z,13.2
2018-04-07T20:15:02.656Z,12.9
2018-04-07T20:30:02.975Z,12.6
2018-04-07T20:45:02.266Z,12.3
2018-04-07T21:00:02.520Z,12
2018-04-07T21:15:02.792Z,11.8
2018-04-07T21:30:03.109Z,11.4
2018-04-07T21:45:02.369Z,11.1
2018-04-07T22:00:02.738Z,10.9
2018-04-07T22:15:02.947Z,10.6
2018-04-07T22:30:02.385Z,10.4
2018-04-07T22:45:02.697Z,10.2
2018-04-07T23:00:03.001Z,9.9
2018-04-07T23:15:02.377Z,9.7
2018-04-07T23:30:02.767Z,9.5
2018-04-07T23:45:03.113Z,9.1
